sensor_id;sensor_type;location;lat;lon;timestamp;P1;durP1;ratioP1;P2;durP2;ratioP2
11970;SDS011;6045;42.682;23.294;2023-07-16T00:00:52;7.10;;;6.03;;
11970;SDS011;6045;42.682;23.294;2023-07-16T00:03:19;8.27;;;5.95;;
11970;SDS011;6045;42.682;23.294;2023-07-16T00:05:48;8.82;;;5.65;;
11970;SDS011;6045;42.682;23.294;2023-07-16T00:08:18;7.82;;;5.97;;
11970;SDS011;6045;42.682;23.294;2023-07-16T00:10:47;6.97;;;5.82;;
11970;SDS011;6045;42.682;23.294;2023-07-16T00:13:13;9.13;;;6.25;;
11970;SDS011;6045;42.682;23.294;2023-07-16T00:15:40;8.88;;;5.90;;
11970;SDS011;6045;42.682;23.294;2023-07-16T00:18:07;8.05;;;5.85;;
11970;SDS011;6045;42.682;23.294;2023-07-16T00:20:34;7.38;;;6.43;;
11970;SDS011;6045;42.682;23.294;2023-07-16T00:23:00;6.38;;;5.28;;
11970;SDS011;6045;42.682;23.294;2023-07-16T00:25:27;6.78;;;5.88;;
11970;SDS011;6045;42.682;23.294;2023-07-16T00:27:56;7.22;;;5.68;;
11970;SDS011;6045;42.682;23.294;2023-07-16T00:30:23;9.00;;;5.47;;
11970;SDS011;6045;42.682;23.294;2023-07-16T00:32:50;8.45;;;5.45;;
11970;SDS011;6045;42.682;23.294;2023-07-16T00:35:16;6.80;;;5.38;;
11970;SDS011;6045;42.682;23.294;2023-07-16T00:37:43;6.70;;;5.57;;
11970;SDS011;6045;42.682;23.294;2023-07-16T00:40:10;7.70;;;5.25;;
11970;SDS011;6045;42.682;23.294;2023-07-16T00:42:37;6.30;;;4.70;;
11970;SDS011;6045;42.682;23.294;2023-07-16T00:45:10;5.97;;;4.95;;
11970;SDS011;6045;42.682;23.294;2023-07-16T00:47:39;6.28;;;4.95;;
11970;SDS011;6045;42.682;23.294;2023-07-16T00:50:10;8.82;;;5.00;;
11970;SDS011;6045;42.682;23.294;2023-07-16T00:52:37;6.63;;;5.63;;
11970;SDS011;6045;42.682;23.294;2023-07-16T00:55:05;6.47;;;5.03;;
11970;SDS011;6045;42.682;23.294;2023-07-16T00:57:33;8.68;;;5.32;;
11970;SDS011;6045;42.682;23.294;2023-07-16T01:00:00;6.80;;;4.53;;
11970;SDS011;6045;42.682;23.294;2023-07-16T01:02:28;7.82;;;5.13;;
11970;SDS011;6045;42.682;23.294;2023-07-16T01:04:55;6.55;;;4.72;;
11970;SDS011;6045;42.682;23.294;2023-07-16T01:07:23;6.45;;;4.65;;
11970;SDS011;6045;42.682;23.294;2023-07-16T01:09:52;8.80;;;5.20;;
11970;SDS011;6045;42.682;23.294;2023-07-16T01:12:20;5.03;;;4.28;;
11970;SDS011;6045;42.682;23.294;2023-07-16T01:14:48;5.90;;;4.53;;
11970;SDS011;6045;42.682;23.294;2023-07-16T01:17:17;6.72;;;4.07;;
11970;SDS011;6045;42.682;23.294;2023-07-16T01:19:45;6.35;;;4.18;;
11970;SDS011;6045;42.682;23.294;2023-07-16T01:25:09;5.15;;;4.47;;
11970;SDS011;6045;42.682;23.294;2023-07-16T01:27:50;5.90;;;4.10;;
11970;SDS011;6045;42.682;23.294;2023-07-16T01:30:33;5.38;;;4.28;;
11970;SDS011;6045;42.682;23.294;2023-07-16T01:33:02;6.78;;;4.55;;
11970;SDS011;6045;42.682;23.294;2023-07-16T01:35:30;6.15;;;4.63;;
11970;SDS011;6045;42.682;23.294;2023-07-16T01:37:58;5.57;;;4.70;;
11970;SDS011;6045;42.682;23.294;2023-07-16T01:40:26;6.28;;;3.72;;
11970;SDS011;6045;42.682;23.294;2023-07-16T01:42:52;5.68;;;4.15;;
11970;SDS011;6045;42.682;23.294;2023-07-16T01:45:19;5.50;;;4.10;;
11970;SDS011;6045;42.682;23.294;2023-07-16T01:47:50;4.55;;;4.05;;
11970;SDS011;6045;42.682;23.294;2023-07-16T01:50:25;4.60;;;4.15;;
11970;SDS011;6045;42.682;23.294;2023-07-16T01:52:52;5.07;;;3.83;;
11970;SDS011;6045;42.682;23.294;2023-07-16T01:55:19;4.55;;;3.42;;
11970;SDS011;6045;42.682;23.294;2023-07-16T01:57:45;5.38;;;3.60;;
11970;SDS011;6045;42.682;23.294;2023-07-16T02:00:12;5.30;;;4.22;;
11970;SDS011;6045;42.682;23.294;2023-07-16T02:02:39;4.65;;;3.88;;
11970;SDS011;6045;42.682;23.294;2023-07-16T02:05:08;6.20;;;4.40;;
11970;SDS011;6045;42.682;23.294;2023-07-16T02:07:34;6.18;;;3.75;;
11970;SDS011;6045;42.682;23.294;2023-07-16T02:10:02;5.68;;;3.72;;
11970;SDS011;6045;42.682;23.294;2023-07-16T02:12:29;3.83;;;3.25;;
11970;SDS011;6045;42.682;23.294;2023-07-16T02:14:55;6.13;;;4.03;;
11970;SDS011;6045;42.682;23.294;2023-07-16T02:17:22;6.88;;;3.42;;
11970;SDS011;6045;42.682;23.294;2023-07-16T02:19:49;5.40;;;3.60;;
11970;SDS011;6045;42.682;23.294;2023-07-16T02:22:17;6.75;;;3.80;;
11970;SDS011;6045;42.682;23.294;2023-07-16T02:24:44;6.97;;;3.80;;
11970;SDS011;6045;42.682;23.294;2023-07-16T02:27:11;5.07;;;3.60;;
11970;SDS011;6045;42.682;23.294;2023-07-16T02:29:37;5.40;;;4.05;;
11970;SDS011;6045;42.682;23.294;2023-07-16T02:32:04;5.25;;;3.78;;
11970;SDS011;6045;42.682;23.294;2023-07-16T02:34:31;4.25;;;3.67;;
11970;SDS011;6045;42.682;23.294;2023-07-16T02:36:58;5.10;;;3.63;;
11970;SDS011;6045;42.682;23.294;2023-07-16T02:39:26;3.70;;;3.25;;
11970;SDS011;6045;42.682;23.294;2023-07-16T02:41:53;4.05;;;3.58;;
11970;SDS011;6045;42.682;23.294;2023-07-16T02:44:20;5.35;;;3.63;;
11970;SDS011;6045;42.682;23.294;2023-07-16T02:46:46;3.90;;;3.30;;
11970;SDS011;6045;42.682;23.294;2023-07-16T02:49:13;6.35;;;3.95;;
11970;SDS011;6045;42.682;23.294;2023-07-16T02:51:40;4.68;;;3.58;;
11970;SDS011;6045;42.682;23.294;2023-07-16T02:54:07;8.77;;;3.60;;
11970;SDS011;6045;42.682;23.294;2023-07-16T02:56:36;3.58;;;3.10;;
11970;SDS011;6045;42.682;23.294;2023-07-16T02:59:03;4.22;;;3.22;;
11970;SDS011;6045;42.682;23.294;2023-07-16T03:01:30;4.78;;;3.63;;
11970;SDS011;6045;42.682;23.294;2023-07-16T03:03:56;4.03;;;3.63;;
11970;SDS011;6045;42.682;23.294;2023-07-16T03:06:23;5.00;;;3.53;;
11970;SDS011;6045;42.682;23.294;2023-07-16T03:08:50;4.93;;;3.17;;
11970;SDS011;6045;42.682;23.294;2023-07-16T03:11:17;5.18;;;3.13;;
11970;SDS011;6045;42.682;23.294;2023-07-16T03:13:45;4.88;;;3.63;;
11970;SDS011;6045;42.682;23.294;2023-07-16T03:16:12;5.15;;;3.63;;
11970;SDS011;6045;42.682;23.294;2023-07-16T03:18:38;4.70;;;3.38;;
11970;SDS011;6045;42.682;23.294;2023-07-16T03:21:08;5.03;;;3.20;;
11970;SDS011;6045;42.682;23.294;2023-07-16T03:23:35;3.97;;;3.58;;
11970;SDS011;6045;42.682;23.294;2023-07-16T03:26:01;4.20;;;3.35;;
11970;SDS011;6045;42.682;23.294;2023-07-16T03:28:28;5.25;;;3.72;;
11970;SDS011;6045;42.682;23.294;2023-07-16T03:30:56;5.45;;;3.35;;
11970;SDS011;6045;42.682;23.294;2023-07-16T03:33:23;5.13;;;3.33;;
11970;SDS011;6045;42.682;23.294;2023-07-16T03:35:50;4.28;;;3.00;;
11970;SDS011;6045;42.682;23.294;2023-07-16T03:38:17;4.35;;;3.30;;
11970;SDS011;6045;42.682;23.294;2023-07-16T03:40:45;3.30;;;2.97;;
11970;SDS011;6045;42.682;23.294;2023-07-16T03:43:13;3.67;;;3.13;;
11970;SDS011;6045;42.682;23.294;2023-07-16T03:45:40;4.20;;;3.78;;
11970;SDS011;6045;42.682;23.294;2023-07-16T03:48:08;4.32;;;3.40;;
11970;SDS011;6045;42.682;23.294;2023-07-16T03:50:35;4.32;;;3.90;;
11970;SDS011;6045;42.682;23.294;2023-07-16T03:53:03;4.13;;;3.65;;
11970;SDS011;6045;42.682;23.294;2023-07-16T03:55:29;3.80;;;3.40;;
11970;SDS011;6045;42.682;23.294;2023-07-16T03:57:56;6.55;;;4.00;;
11970;SDS011;6045;42.682;23.294;2023-07-16T04:00:23;4.05;;;3.25;;
11970;SDS011;6045;42.682;23.294;2023-07-16T04:02:50;5.03;;;3.78;;
11970;SDS011;6045;42.682;23.294;2023-07-16T04:05:18;3.88;;;3.25;;
11970;SDS011;6045;42.682;23.294;2023-07-16T04:07:45;5.05;;;3.30;;
11970;SDS011;6045;42.682;23.294;2023-07-16T04:10:12;5.43;;;3.17;;
11970;SDS011;6045;42.682;23.294;2023-07-16T04:12:39;4.65;;;3.17;;
11970;SDS011;6045;42.682;23.294;2023-07-16T04:15:07;4.43;;;3.25;;
11970;SDS011;6045;42.682;23.294;2023-07-16T04:17:35;5.13;;;3.40;;
11970;SDS011;6045;42.682;23.294;2023-07-16T04:20:02;8.23;;;4.07;;
11970;SDS011;6045;42.682;23.294;2023-07-16T04:22:32;5.22;;;3.65;;
11970;SDS011;6045;42.682;23.294;2023-07-16T04:24:59;5.05;;;3.42;;
11970;SDS011;6045;42.682;23.294;2023-07-16T04:27:26;4.40;;;3.20;;
11970;SDS011;6045;42.682;23.294;2023-07-16T04:29:53;4.38;;;3.20;;
11970;SDS011;6045;42.682;23.294;2023-07-16T04:32:20;3.92;;;3.28;;
11970;SDS011;6045;42.682;23.294;2023-07-16T04:34:47;4.57;;;3.60;;
11970;SDS011;6045;42.682;23.294;2023-07-16T04:37:14;3.88;;;3.22;;
11970;SDS011;6045;42.682;23.294;2023-07-16T04:39:43;4.32;;;3.33;;
11970;SDS011;6045;42.682;23.294;2023-07-16T04:42:09;4.60;;;3.67;;
11970;SDS011;6045;42.682;23.294;2023-07-16T04:44:36;7.07;;;4.00;;
11970;SDS011;6045;42.682;23.294;2023-07-16T04:47:03;4.30;;;3.65;;
11970;SDS011;6045;42.682;23.294;2023-07-16T04:49:31;4.35;;;3.45;;
11970;SDS011;6045;42.682;23.294;2023-07-16T04:51:58;4.38;;;3.40;;
11970;SDS011;6045;42.682;23.294;2023-07-16T04:54:24;4.03;;;3.33;;
11970;SDS011;6045;42.682;23.294;2023-07-16T04:56:53;7.43;;;4.20;;
11970;SDS011;6045;42.682;23.294;2023-07-16T04:59:21;5.65;;;3.50;;
11970;SDS011;6045;42.682;23.294;2023-07-16T05:01:48;4.40;;;4.00;;
11970;SDS011;6045;42.682;23.294;2023-07-16T05:04:15;5.57;;;3.70;;
11970;SDS011;6045;42.682;23.294;2023-07-16T05:06:41;4.05;;;2.97;;
11970;SDS011;6045;42.682;23.294;2023-07-16T05:09:08;8.63;;;3.90;;
11970;SDS011;6045;42.682;23.294;2023-07-16T05:11:35;4.00;;;3.53;;
11970;SDS011;6045;42.682;23.294;2023-07-16T05:14:04;4.78;;;3.92;;
11970;SDS011;6045;42.682;23.294;2023-07-16T05:16:31;4.45;;;3.78;;
11970;SDS011;6045;42.682;23.294;2023-07-16T05:18:58;5.03;;;3.47;;
11970;SDS011;6045;42.682;23.294;2023-07-16T05:21:24;5.78;;;3.75;;
11970;SDS011;6045;42.682;23.294;2023-07-16T05:23:51;4.60;;;3.53;;
11970;SDS011;6045;42.682;23.294;2023-07-16T05:26:18;4.05;;;3.40;;
11970;SDS011;6045;42.682;23.294;2023-07-16T05:28:45;4.28;;;3.25;;
11970;SDS011;6045;42.682;23.294;2023-07-16T05:31:13;4.63;;;3.40;;
11970;SDS011;6045;42.682;23.294;2023-07-16T05:33:42;4.65;;;3.28;;
11970;SDS011;6045;42.682;23.294;2023-07-16T05:36:09;4.53;;;3.17;;
11970;SDS011;6045;42.682;23.294;2023-07-16T05:38:37;4.38;;;3.55;;
11970;SDS011;6045;42.682;23.294;2023-07-16T05:41:03;5.20;;;3.70;;
11970;SDS011;6045;42.682;23.294;2023-07-16T05:43:31;4.20;;;3.17;;
11970;SDS011;6045;42.682;23.294;2023-07-16T05:45:58;4.68;;;3.58;;
11970;SDS011;6045;42.682;23.294;2023-07-16T05:48:26;3.45;;;3.00;;
11970;SDS011;6045;42.682;23.294;2023-07-16T05:50:52;5.07;;;3.42;;
11970;SDS011;6045;42.682;23.294;2023-07-16T05:53:19;5.70;;;3.05;;
11970;SDS011;6045;42.682;23.294;2023-07-16T05:55:46;4.50;;;3.70;;
11970;SDS011;6045;42.682;23.294;2023-07-16T05:58:14;8.75;;;3.85;;
11970;SDS011;6045;42.682;23.294;2023-07-16T06:00:42;7.25;;;4.60;;
11970;SDS011;6045;42.682;23.294;2023-07-16T06:03:10;5.43;;;3.85;;
11970;SDS011;6045;42.682;23.294;2023-07-16T06:05:39;6.85;;;3.85;;
11970;SDS011;6045;42.682;23.294;2023-07-16T06:08:05;5.75;;;4.03;;
11970;SDS011;6045;42.682;23.294;2023-07-16T06:10:33;7.88;;;5.47;;
11970;SDS011;6045;42.682;23.294;2023-07-16T06:13:00;4.85;;;4.40;;
11970;SDS011;6045;42.682;23.294;2023-07-16T06:15:27;12.18;;;8.65;;
11970;SDS011;6045;42.682;23.294;2023-07-16T06:17:54;5.60;;;3.75;;
11970;SDS011;6045;42.682;23.294;2023-07-16T06:20:20;5.55;;;3.92;;
11970;SDS011;6045;42.682;23.294;2023-07-16T06:22:48;7.03;;;4.22;;
11970;SDS011;6045;42.682;23.294;2023-07-16T06:25:15;4.90;;;3.95;;
11970;SDS011;6045;42.682;23.294;2023-07-16T06:27:42;4.85;;;3.38;;
11970;SDS011;6045;42.682;23.294;2023-07-16T06:30:09;4.88;;;4.00;;
11970;SDS011;6045;42.682;23.294;2023-07-16T06:32:36;3.78;;;3.30;;
11970;SDS011;6045;42.682;23.294;2023-07-16T06:35:03;4.95;;;3.85;;
11970;SDS011;6045;42.682;23.294;2023-07-16T06:37:30;3.42;;;3.13;;
11970;SDS011;6045;42.682;23.294;2023-07-16T06:39:58;3.85;;;3.50;;
11970;SDS011;6045;42.682;23.294;2023-07-16T06:42:25;5.07;;;3.63;;
11970;SDS011;6045;42.682;23.294;2023-07-16T06:44:52;4.22;;;3.67;;
11970;SDS011;6045;42.682;23.294;2023-07-16T06:47:18;4.35;;;3.95;;
11970;SDS011;6045;42.682;23.294;2023-07-16T06:49:45;6.05;;;4.25;;
11970;SDS011;6045;42.682;23.294;2023-07-16T06:52:18;7.57;;;3.65;;
11970;SDS011;6045;42.682;23.294;2023-07-16T06:54:45;6.38;;;3.85;;
11970;SDS011;6045;42.682;23.294;2023-07-16T06:57:13;4.70;;;3.55;;
11970;SDS011;6045;42.682;23.294;2023-07-16T06:59:40;4.78;;;3.65;;
11970;SDS011;6045;42.682;23.294;2023-07-16T07:02:07;4.65;;;3.75;;
11970;SDS011;6045;42.682;23.294;2023-07-16T07:04:33;4.93;;;3.95;;
11970;SDS011;6045;42.682;23.294;2023-07-16T07:07:00;5.30;;;4.80;;
11970;SDS011;6045;42.682;23.294;2023-07-16T07:09:27;5.20;;;4.05;;
11970;SDS011;6045;42.682;23.294;2023-07-16T07:11:54;4.53;;;4.07;;
11970;SDS011;6045;42.682;23.294;2023-07-16T07:14:22;5.45;;;4.93;;
11970;SDS011;6045;42.682;23.294;2023-07-16T07:16:49;4.70;;;4.15;;
11970;SDS011;6045;42.682;23.294;2023-07-16T07:19:15;5.68;;;4.30;;
11970;SDS011;6045;42.682;23.294;2023-07-16T07:21:42;6.68;;;4.65;;
11970;SDS011;6045;42.682;23.294;2023-07-16T07:24:09;4.53;;;4.05;;
11970;SDS011;6045;42.682;23.294;2023-07-16T07:26:36;7.88;;;5.15;;
11970;SDS011;6045;42.682;23.294;2023-07-16T07:29:03;5.85;;;5.25;;
11970;SDS011;6045;42.682;23.294;2023-07-16T07:31:34;5.60;;;4.93;;
11970;SDS011;6045;42.682;23.294;2023-07-16T07:34:01;5.55;;;4.10;;
11970;SDS011;6045;42.682;23.294;2023-07-16T07:36:28;7.20;;;4.30;;
11970;SDS011;6045;42.682;23.294;2023-07-16T07:38:55;5.13;;;4.20;;
11970;SDS011;6045;42.682;23.294;2023-07-16T07:41:21;4.70;;;4.05;;
11970;SDS011;6045;42.682;23.294;2023-07-16T07:43:48;5.95;;;4.45;;
11970;SDS011;6045;42.682;23.294;2023-07-16T07:46:15;6.15;;;3.97;;
11970;SDS011;6045;42.682;23.294;2023-07-16T07:48:43;4.65;;;4.03;;
11970;SDS011;6045;42.682;23.294;2023-07-16T07:51:10;4.40;;;4.00;;
11970;SDS011;6045;42.682;23.294;2023-07-16T07:53:37;5.43;;;3.90;;
11970;SDS011;6045;42.682;23.294;2023-07-16T07:56:03;5.28;;;3.88;;
11970;SDS011;6045;42.682;23.294;2023-07-16T07:58:30;5.05;;;4.25;;
11970;SDS011;6045;42.682;23.294;2023-07-16T08:01:02;5.25;;;4.78;;
11970;SDS011;6045;42.682;23.294;2023-07-16T08:03:30;5.38;;;4.07;;
11970;SDS011;6045;42.682;23.294;2023-07-16T08:05:58;4.78;;;4.03;;
11970;SDS011;6045;42.682;23.294;2023-07-16T08:08:25;5.95;;;4.72;;
11970;SDS011;6045;42.682;23.294;2023-07-16T08:10:55;4.88;;;4.07;;
11970;SDS011;6045;42.682;23.294;2023-07-16T08:13:22;5.60;;;4.30;;
11970;SDS011;6045;42.682;23.294;2023-07-16T08:15:49;5.55;;;3.80;;
11970;SDS011;6045;42.682;23.294;2023-07-16T08:18:15;4.53;;;4.13;;
11970;SDS011;6045;42.682;23.294;2023-07-16T08:20:42;6.45;;;4.40;;
11970;SDS011;6045;42.682;23.294;2023-07-16T08:23:10;7.93;;;5.38;;
11970;SDS011;6045;42.682;23.294;2023-07-16T08:25:38;6.68;;;4.97;;
11970;SDS011;6045;42.682;23.294;2023-07-16T08:28:05;5.53;;;5.00;;
11970;SDS011;6045;42.682;23.294;2023-07-16T08:30:32;5.57;;;4.50;;
11970;SDS011;6045;42.682;23.294;2023-07-16T08:32:59;5.07;;;4.60;;
11970;SDS011;6045;42.682;23.294;2023-07-16T08:35:26;6.13;;;4.47;;
11970;SDS011;6045;42.682;23.294;2023-07-16T08:37:53;4.80;;;4.30;;
11970;SDS011;6045;42.682;23.294;2023-07-16T08:40:21;6.13;;;4.80;;
11970;SDS011;6045;42.682;23.294;2023-07-16T08:42:47;7.30;;;4.93;;
11970;SDS011;6045;42.682;23.294;2023-07-16T08:45:15;6.30;;;4.80;;
11970;SDS011;6045;42.682;23.294;2023-07-16T08:47:42;5.15;;;4.47;;
11970;SDS011;6045;42.682;23.294;2023-07-16T08:50:09;7.40;;;4.88;;
11970;SDS011;6045;42.682;23.294;2023-07-16T08:52:37;7.90;;;4.70;;
11970;SDS011;6045;42.682;23.294;2023-07-16T08:55:05;4.85;;;4.45;;
11970;SDS011;6045;42.682;23.294;2023-07-16T08:57:34;4.97;;;4.30;;
11970;SDS011;6045;42.682;23.294;2023-07-16T09:00:01;5.20;;;4.70;;
11970;SDS011;6045;42.682;23.294;2023-07-16T09:02:30;5.32;;;4.55;;
11970;SDS011;6045;42.682;23.294;2023-07-16T09:04:57;4.78;;;4.32;;
11970;SDS011;6045;42.682;23.294;2023-07-16T09:07:26;5.25;;;4.75;;
11970;SDS011;6045;42.682;23.294;2023-07-16T09:09:56;8.75;;;4.70;;
11970;SDS011;6045;42.682;23.294;2023-07-16T09:12:26;5.28;;;4.60;;
11970;SDS011;6045;42.682;23.294;2023-07-16T09:14:56;7.78;;;5.35;;
11970;SDS011;6045;42.682;23.294;2023-07-16T09:17:23;5.72;;;5.15;;
11970;SDS011;6045;42.682;23.294;2023-07-16T09:19:51;6.20;;;4.82;;
11970;SDS011;6045;42.682;23.294;2023-07-16T09:22:19;5.78;;;5.00;;
11970;SDS011;6045;42.682;23.294;2023-07-16T09:24:46;6.68;;;5.82;;
11970;SDS011;6045;42.682;23.294;2023-07-16T09:27:13;7.78;;;5.20;;
11970;SDS011;6045;42.682;23.294;2023-07-16T09:29:40;6.63;;;4.88;;
11970;SDS011;6045;42.682;23.294;2023-07-16T09:32:09;5.55;;;5.00;;
11970;SDS011;6045;42.682;23.294;2023-07-16T09:34:35;5.57;;;4.80;;
11970;SDS011;6045;42.682;23.294;2023-07-16T09:37:04;5.00;;;4.60;;
11970;SDS011;6045;42.682;23.294;2023-07-16T09:39:33;6.50;;;5.75;;
11970;SDS011;6045;42.682;23.294;2023-07-16T09:42:02;5.63;;;5.10;;
11970;SDS011;6045;42.682;23.294;2023-07-16T09:44:29;7.95;;;5.30;;
11970;SDS011;6045;42.682;23.294;2023-07-16T09:46:56;5.97;;;5.05;;
11970;SDS011;6045;42.682;23.294;2023-07-16T09:49:25;6.78;;;4.97;;
11970;SDS011;6045;42.682;23.294;2023-07-16T09:51:55;6.03;;;5.43;;
11970;SDS011;6045;42.682;23.294;2023-07-16T09:54:24;6.93;;;5.43;;
11970;SDS011;6045;42.682;23.294;2023-07-16T09:56:53;7.43;;;5.85;;
11970;SDS011;6045;42.682;23.294;2023-07-16T09:59:24;7.10;;;6.00;;
11970;SDS011;6045;42.682;23.294;2023-07-16T10:01:54;6.22;;;5.53;;
11970;SDS011;6045;42.682;23.294;2023-07-16T10:04:22;6.70;;;5.55;;
11970;SDS011;6045;42.682;23.294;2023-07-16T10:06:54;7.40;;;5.90;;
11970;SDS011;6045;42.682;23.294;2023-07-16T10:09:34;7.45;;;5.43;;
11970;SDS011;6045;42.682;23.294;2023-07-16T10:12:11;8.20;;;6.63;;
11970;SDS011;6045;42.682;23.294;2023-07-16T10:14:39;7.63;;;6.07;;
11970;SDS011;6045;42.682;23.294;2023-07-16T10:17:07;7.20;;;5.90;;
11970;SDS011;6045;42.682;23.294;2023-07-16T10:19:46;7.53;;;5.28;;
11970;SDS011;6045;42.682;23.294;2023-07-16T10:22:17;8.30;;;5.93;;
11970;SDS011;6045;42.682;23.294;2023-07-16T10:24:50;8.48;;;5.75;;
11970;SDS011;6045;42.682;23.294;2023-07-16T10:27:26;6.88;;;5.70;;
11970;SDS011;6045;42.682;23.294;2023-07-16T10:29:54;7.47;;;5.55;;
11970;SDS011;6045;42.682;23.294;2023-07-16T10:32:21;6.95;;;5.93;;
11970;SDS011;6045;42.682;23.294;2023-07-16T10:34:53;8.30;;;6.07;;
11970;SDS011;6045;42.682;23.294;2023-07-16T10:37:20;9.85;;;6.00;;
11970;SDS011;6045;42.682;23.294;2023-07-16T10:39:47;6.25;;;5.68;;
11970;SDS011;6045;42.682;23.294;2023-07-16T10:42:15;6.72;;;5.90;;
11970;SDS011;6045;42.682;23.294;2023-07-16T10:44:42;7.88;;;5.80;;
11970;SDS011;6045;42.682;23.294;2023-07-16T10:47:09;7.80;;;5.75;;
11970;SDS011;6045;42.682;23.294;2023-07-16T10:49:45;8.05;;;5.60;;
11970;SDS011;6045;42.682;23.294;2023-07-16T10:52:13;9.70;;;5.72;;
11970;SDS011;6045;42.682;23.294;2023-07-16T10:54:40;7.78;;;5.80;;
11970;SDS011;6045;42.682;23.294;2023-07-16T10:57:07;6.60;;;5.80;;
11970;SDS011;6045;42.682;23.294;2023-07-16T10:59:36;6.72;;;5.65;;
11970;SDS011;6045;42.682;23.294;2023-07-16T11:02:03;7.13;;;6.07;;
11970;SDS011;6045;42.682;23.294;2023-07-16T11:04:34;8.00;;;5.82;;
11970;SDS011;6045;42.682;23.294;2023-07-16T11:07:03;9.02;;;5.88;;
11970;SDS011;6045;42.682;23.294;2023-07-16T11:09:33;5.88;;;5.28;;
11970;SDS011;6045;42.682;23.294;2023-07-16T11:12:06;7.90;;;5.75;;
11970;SDS011;6045;42.682;23.294;2023-07-16T11:14:34;10.45;;;6.03;;
11970;SDS011;6045;42.682;23.294;2023-07-16T11:17:04;7.57;;;6.10;;
11970;SDS011;6045;42.682;23.294;2023-07-16T11:19:32;7.10;;;5.10;;
11970;SDS011;6045;42.682;23.294;2023-07-16T11:22:00;6.43;;;5.68;;
11970;SDS011;6045;42.682;23.294;2023-07-16T11:24:27;6.25;;;5.22;;
11970;SDS011;6045;42.682;23.294;2023-07-16T11:26:55;6.90;;;5.85;;
11970;SDS011;6045;42.682;23.294;2023-07-16T11:29:23;6.90;;;5.25;;
11970;SDS011;6045;42.682;23.294;2023-07-16T11:31:50;8.45;;;6.57;;
11970;SDS011;6045;42.682;23.294;2023-07-16T11:34:19;6.30;;;5.32;;
11970;SDS011;6045;42.682;23.294;2023-07-16T11:36:46;7.53;;;5.55;;
11970;SDS011;6045;42.682;23.294;2023-07-16T11:39:13;7.95;;;5.45;;
11970;SDS011;6045;42.682;23.294;2023-07-16T11:41:40;6.22;;;5.47;;
11970;SDS011;6045;42.682;23.294;2023-07-16T11:44:08;6.03;;;5.07;;
11970;SDS011;6045;42.682;23.294;2023-07-16T11:46:38;5.80;;;5.22;;
11970;SDS011;6045;42.682;23.294;2023-07-16T11:49:05;7.63;;;6.45;;
11970;SDS011;6045;42.682;23.294;2023-07-16T11:51:31;6.38;;;5.40;;
11970;SDS011;6045;42.682;23.294;2023-07-16T11:53:58;6.57;;;5.88;;
11970;SDS011;6045;42.682;23.294;2023-07-16T11:56:25;6.68;;;5.53;;
11970;SDS011;6045;42.682;23.294;2023-07-16T11:58:52;6.20;;;5.57;;
11970;SDS011;6045;42.682;23.294;2023-07-16T12:01:20;6.40;;;5.72;;
11970;SDS011;6045;42.682;23.294;2023-07-16T12:03:46;7.45;;;6.13;;
11970;SDS011;6045;42.682;23.294;2023-07-16T12:06:13;6.88;;;5.82;;
11970;SDS011;6045;42.682;23.294;2023-07-16T12:08:40;8.20;;;5.75;;
11970;SDS011;6045;42.682;23.294;2023-07-16T12:11:07;6.35;;;5.65;;
11970;SDS011;6045;42.682;23.294;2023-07-16T12:13:34;7.18;;;6.07;;
11970;SDS011;6045;42.682;23.294;2023-07-16T12:16:04;6.72;;;5.57;;
11970;SDS011;6045;42.682;23.294;2023-07-16T12:18:32;6.45;;;5.85;;
11970;SDS011;6045;42.682;23.294;2023-07-16T12:20:59;7.80;;;5.35;;
11970;SDS011;6045;42.682;23.294;2023-07-16T12:23:26;8.93;;;5.85;;
11970;SDS011;6045;42.682;23.294;2023-07-16T12:25:52;5.68;;;4.97;;
11970;SDS011;6045;42.682;23.294;2023-07-16T12:28:19;6.53;;;5.88;;
11970;SDS011;6045;42.682;23.294;2023-07-16T12:30:46;7.22;;;5.40;;
11970;SDS011;6045;42.682;23.294;2023-07-16T12:33:13;7.28;;;5.22;;
11970;SDS011;6045;42.682;23.294;2023-07-16T12:35:41;6.18;;;5.25;;
11970;SDS011;6045;42.682;23.294;2023-07-16T12:38:08;6.05;;;5.45;;
11970;SDS011;6045;42.682;23.294;2023-07-16T12:40:35;7.32;;;5.90;;
11970;SDS011;6045;42.682;23.294;2023-07-16T12:43:05;8.02;;;5.68;;
11970;SDS011;6045;42.682;23.294;2023-07-16T12:45:32;6.30;;;5.68;;
11970;SDS011;6045;42.682;23.294;2023-07-16T12:47:59;5.75;;;5.03;;
11970;SDS011;6045;42.682;23.294;2023-07-16T12:50:26;5.45;;;4.95;;
11970;SDS011;6045;42.682;23.294;2023-07-16T12:52:58;6.97;;;5.38;;
11970;SDS011;6045;42.682;23.294;2023-07-16T12:55:25;6.63;;;5.28;;
11970;SDS011;6045;42.682;23.294;2023-07-16T12:57:52;5.60;;;4.75;;
11970;SDS011;6045;42.682;23.294;2023-07-16T13:00:19;7.45;;;4.68;;
11970;SDS011;6045;42.682;23.294;2023-07-16T13:02:46;8.82;;;5.50;;
11970;SDS011;6045;42.682;23.294;2023-07-16T13:05:12;6.50;;;5.75;;
11970;SDS011;6045;42.682;23.294;2023-07-16T13:07:39;6.05;;;4.82;;
11970;SDS011;6045;42.682;23.294;2023-07-16T13:10:08;6.20;;;5.38;;
11970;SDS011;6045;42.682;23.294;2023-07-16T13:12:35;7.63;;;4.88;;
11970;SDS011;6045;42.682;23.294;2023-07-16T13:15:02;6.03;;;4.95;;
11970;SDS011;6045;42.682;23.294;2023-07-16T13:17:29;8.02;;;5.50;;
11970;SDS011;6045;42.682;23.294;2023-07-16T13:19:56;6.25;;;5.60;;
11970;SDS011;6045;42.682;23.294;2023-07-16T13:22:23;6.82;;;5.50;;
11970;SDS011;6045;42.682;23.294;2023-07-16T13:24:50;5.57;;;5.07;;
11970;SDS011;6045;42.682;23.294;2023-07-16T13:27:21;6.57;;;5.72;;
11970;SDS011;6045;42.682;23.294;2023-07-16T13:29:48;5.75;;;5.07;;
11970;SDS011;6045;42.682;23.294;2023-07-16T13:32:15;5.28;;;4.78;;
11970;SDS011;6045;42.682;23.294;2023-07-16T13:34:42;6.50;;;5.45;;
11970;SDS011;6045;42.682;23.294;2023-07-16T13:37:09;7.43;;;5.60;;
11970;SDS011;6045;42.682;23.294;2023-07-16T13:39:36;6.60;;;5.07;;
11970;SDS011;6045;42.682;23.294;2023-07-16T13:42:03;5.35;;;4.80;;
11970;SDS011;6045;42.682;23.294;2023-07-16T13:44:35;6.00;;;4.93;;
11970;SDS011;6045;42.682;23.294;2023-07-16T13:47:02;6.60;;;5.03;;
11970;SDS011;6045;42.682;23.294;2023-07-16T13:49:30;5.63;;;5.07;;
11970;SDS011;6045;42.682;23.294;2023-07-16T13:51:56;6.10;;;5.50;;
11970;SDS011;6045;42.682;23.294;2023-07-16T13:54:23;5.93;;;5.10;;
11970;SDS011;6045;42.682;23.294;2023-07-16T13:56:50;7.10;;;4.60;;
11970;SDS011;6045;42.682;23.294;2023-07-16T13:59:17;5.35;;;4.75;;
11970;SDS011;6045;42.682;23.294;2023-07-16T14:01:45;6.53;;;5.43;;
11970;SDS011;6045;42.682;23.294;2023-07-16T14:04:12;5.50;;;4.25;;
11970;SDS011;6045;42.682;23.294;2023-07-16T14:06:39;7.22;;;4.90;;
11970;SDS011;6045;42.682;23.294;2023-07-16T14:09:05;5.30;;;4.80;;
11970;SDS011;6045;42.682;23.294;2023-07-16T14:11:32;6.13;;;4.38;;
11970;SDS011;6045;42.682;23.294;2023-07-16T14:13:59;6.40;;;5.20;;
11970;SDS011;6045;42.682;23.294;2023-07-16T14:16:26;8.85;;;4.68;;
11970;SDS011;6045;42.682;23.294;2023-07-16T14:18:54;4.72;;;4.28;;
11970;SDS011;6045;42.682;23.294;2023-07-16T14:21:21;6.40;;;5.25;;
11970;SDS011;6045;42.682;23.294;2023-07-16T14:23:48;6.53;;;4.60;;
11970;SDS011;6045;42.682;23.294;2023-07-16T14:26:15;7.13;;;5.53;;
11970;SDS011;6045;42.682;23.294;2023-07-16T14:28:42;6.13;;;5.40;;
11970;SDS011;6045;42.682;23.294;2023-07-16T14:31:09;6.90;;;5.38;;
11970;SDS011;6045;42.682;23.294;2023-07-16T14:33:36;5.72;;;4.90;;
11970;SDS011;6045;42.682;23.294;2023-07-16T14:36:04;8.45;;;5.18;;
11970;SDS011;6045;42.682;23.294;2023-07-16T14:38:31;5.88;;;5.28;;
11970;SDS011;6045;42.682;23.294;2023-07-16T14:40:59;6.35;;;5.20;;
11970;SDS011;6045;42.682;23.294;2023-07-16T14:43:26;6.13;;;5.10;;
11970;SDS011;6045;42.682;23.294;2023-07-16T14:45:53;8.35;;;5.82;;
11970;SDS011;6045;42.682;23.294;2023-07-16T14:48:19;6.10;;;5.18;;
11970;SDS011;6045;42.682;23.294;2023-07-16T14:50:48;6.25;;;5.60;;
11970;SDS011;6045;42.682;23.294;2023-07-16T14:53:16;6.35;;;5.65;;